• Join FlightAware (Why Join?)
  • Login
  • US Flag 
03:19AM EDT


 

Airport Tracker/Info


-or-


 

Live Flight TrackerFlight Track Log ✈ N265NX ✈ 06-May-2013 ✈ KFAT - KBFI

Flight Track Log - Related Links

Times and Time Zones

All times are in EDT time to prevent confusion due to time zone crossing. See the N265NX flight status page for this flight to view local times or setup timezone preferences in your user account.

Time Position Orientation Groundspeed Altitude Reporting Facility
EDT Latitude Longitude Course Direction KTS MPH feet Rate Location/Type
09:33AM 36.8003 -119.7539 North 128 147 1,800  Level Oakland Center
09:34AM 36.8383 -119.7711 340° North 156 180 3,400 1,560 Climbing Oakland Center
09:35AM 36.8839 -119.7839 347° North 165 190 5,000 1,560 Climbing Oakland Center
09:36AM 36.9347 -119.7986 347° North 184 212 6,600 1,560 Climbing Oakland Center
09:37AM 36.9861 -119.8131 347° North 188 216 8,200 1,440 Climbing Oakland Center
09:38AM 37.1497 -119.8833 North  Level FlightAware Approximate
09:38AM 37.0400 -119.8289 347° North 197 227 9,600  Level Oakland Center
09:39AM 37.0964 -119.8442 348° North 198 228 11,200 1,380 Climbing Oakland Center
09:41AM 37.2086 -119.8744 348° North 210 242 13,800 1,200 Climbing Oakland Center
09:42AM 37.2664 -119.8917 347° North 213 245 15,000 1,140 Climbing Oakland Center
09:43AM 37.3256 -119.9078 348° North 216 249 16,200 1,200 Climbing Oakland Center
09:45AM 37.4518 -119.9553 347° North  Level FlightAware Approximate
09:45AM 37.4600 -119.9447 347° North 228 262 18,700  Level Oakland Center
09:47AM 37.5803 -119.9970 322° Northwest  Level FlightAware Approximate
09:48AM 37.6511 -119.9956 322° Northwest 239 275 21,500  Level Oakland Center
09:49AM 37.7167 -120.0167 346° North 243 280 22,300 660 Climbing Oakland Center
09:51AM 37.8370 -120.0634 349° North  Level FlightAware Approximate
09:53AM 37.9883 -120.0928 347° North 250 288 25,000  Level Oakland Center
09:54AM 38.0575 -120.1125 347° North 254 292 25,600 300 Climbing Oakland Center
09:56AM 38.1972 -120.1533 347° North 262 302 26,000 60 Climbing Oakland Center
09:58AM 38.3208 -120.2006 347° North  Level FlightAware Approximate
09:58AM 38.3631 -120.1997 348° North 278 320 26,000  Level Oakland Center
09:59AM 38.4392 -120.2222 347° North 280 322 26,000  Level Oakland Center
10:01AM 38.5493 -120.2565 346° North  Level FlightAware Approximate
10:03AM 38.7356 -120.3089 346° North 271 312 26,000  Level Oakland Center
10:04AM 38.8094 -120.3303 347° North 273 314 26,000  Level Oakland Center
10:05AM 38.8822 -120.3514 347° North 270 311 26,000  Level Oakland Center
10:07AM 39.0314 -120.3953 347° North 276 318 26,000  Level Oakland Center
10:08AM 39.0308 -120.4077 346° North  Level FlightAware Approximate
10:09AM 39.0996 -120.4295 346° North  Level FlightAware Approximate
10:09AM 39.1683 -120.4353 347° North 276 318 26,000  Level Seattle Center
10:10AM 39.2428 -120.4583 347° North 276 318 26,000  Level Seattle Center
10:10AM 39.2694 -120.4656 348° North 276 318 26,000  Level Oakland Center
10:11AM 39.3456 -120.4872 348° North 277 319 26,000  Level Oakland Center
10:12AM 39.4206 -120.5097 347° North 277 319 26,000  Level Oakland Center
10:13AM 39.4972 -120.5325 347° North 282 325 26,000  Level Oakland Center
10:14AM 39.5728 -120.5542 348° North 279 321 26,000  Level Oakland Center
10:16AM 39.7006 -120.5922 347° North 279 321 26,000  Level Seattle Center
10:16AM 39.7256 -120.6017 344° North 283 326 26,000  Level Oakland Center
10:18AM 39.8159 -120.6318 346° North  Level FlightAware Approximate
10:19AM 39.9286 -120.6600 346° North 279 321 26,000  Level Seattle Center
10:19AM 39.9522 -120.6694 343° North 281 323 26,000  Level Oakland Center
10:21AM 40.0388 -120.7003 345° North  Level FlightAware Approximate
10:21AM 40.0797 -120.7061 345° North 279 321 26,000  Level Seattle Center
10:21AM 40.1075 -120.7158 345° North 281 323 26,000  Level Oakland Center
10:23AM 40.2475 -120.7561 348° North 282 325 26,000  Level Seattle Center
10:23AM 40.2742 -120.7658 344° North 282 325 26,000  Level Oakland Center
10:25AM 40.3978 -120.8042 347° North 280 322 26,000  Level Seattle Center
10:25AM 40.4261 -120.8125 347° North 279 321 26,000  Level Oakland Center
10:28AM 40.5327 -120.8471 346° North  Level FlightAware Approximate
10:28AM 40.6503 -120.8811 346° North 282 325 26,000  Level Oakland Center
10:29AM 40.6958 -120.8939 348° North 279 321 26,000  Level Seattle Center
10:30AM 40.7697 -120.9175 346° North 275 316 26,000  Level Seattle Center
10:31AM 40.8444 -120.9408 347° North 275 316 26,000  Level Seattle Center
10:33AM 40.9443 -120.9788 344° North  Level FlightAware Approximate
10:33AM 40.9961 -120.9881 344° North 279 321 26,000  Level Seattle Center
10:35AM 41.1606 -121.0400 347° North 277 319 26,000  Level Seattle Center
10:36AM 41.2356 -121.0644 346° North 278 320 26,000  Level Seattle Center
10:37AM 41.3119 -121.0878 347° North 280 322 26,000  Level Seattle Center
10:39AM 41.4625 -121.1356 347° North 279 321 26,000  Level Seattle Center
10:41AM 41.6114 -121.1839 346° North 276 318 26,000  Level Seattle Center
10:42AM 41.6858 -121.2081 346° North 276 318 26,000  Level Seattle Center
10:43AM 41.7608 -121.2319 347° North 277 319 26,000  Level Seattle Center
10:44AM 41.8350 -121.2547 347° North 277 319 26,000  Level Seattle Center
10:45AM 41.9094 -121.2792 346° North 276 318 26,000  Level Seattle Center
10:46AM 41.9956 -121.3067 347° North 269 310 26,000  Level Seattle Center
10:47AM 42.0681 -121.3297 347° North 269 310 26,000  Level Seattle Center
10:48AM 42.1417 -121.3539 346° North 272 313 26,000  Level Seattle Center
10:49AM 42.2147 -121.3778 346° North 272 313 26,000  Level Seattle Center
10:51AM 42.2962 -121.4040 347° North  Level FlightAware Approximate
10:55AM 42.6625 -121.5222 346° North 277 319 26,000  Level Seattle Center
10:56AM 42.7369 -121.5464 347° North 274 315 26,000  Level Seattle Center
10:58AM 42.7784 -121.5608 347° North  Level FlightAware Approximate
10:58AM 42.9011 -121.6008 346° North 275 316 26,000  Level Seattle Center
10:59AM 42.8473 -121.5834 346° North  Level FlightAware Approximate
11:00AM 42.9161 -121.6061 346° North  Level FlightAware Approximate
11:00AM 42.9723 -121.6243 346° North  Level FlightAware Approximate
11:01AM 42.9850 -121.6288 346° North  Level FlightAware Approximate
11:01AM 43.0511 -121.6533 346° North 279 321 26,000  Level Seattle Center
11:02AM 43.1258 -121.6786 346° North 278 320 26,000  Level Seattle Center
11:04AM 43.2640 -121.7217 346° North  Level FlightAware Approximate
11:07AM 43.4989 -121.8022 346° North 272 313 26,000  Level Seattle Center
11:08AM 43.5736 -121.8281 346° North 274 315 26,000  Level Seattle Center
11:10AM 43.7336 -121.8814 346° North 273 314 26,000  Level Seattle Center
11:11AM 43.7452 -121.8862 346° North  Level FlightAware Approximate
11:12AM 43.8139 -121.9100 346° North  Level FlightAware Approximate
11:12AM 43.8836 -121.9303 347° North 274 315 26,000  Level Seattle Center
11:13AM 43.9581 -121.9572 345° North 276 318 26,000  Level Seattle Center
11:14AM 44.0319 -121.9822 346° North 274 315 26,000  Level Seattle Center
11:15AM 44.1061 -122.0078 346° North 274 315 26,000  Level Seattle Center
11:16AM 44.1822 -122.0333 346° North 279 321 26,000  Level Seattle Center
11:17AM 44.2567 -122.0594 346° North 276 318 26,000  Level Seattle Center
11:19AM 44.3781 -122.1015 346° North  Level FlightAware Approximate
11:20AM 44.4822 -122.1381 346° North 277 319 26,000  Level Seattle Center
11:22AM 44.6489 -122.1964 346° North 280 322 26,000  Level Seattle Center
11:24AM 44.8003 -122.2511 346° North 281 323 26,000  Level Seattle Center
11:25AM 44.8775 -122.2786 346° North 280 322 26,000  Level Seattle Center
11:27AM 44.9909 -122.3185 346° North  Level FlightAware Approximate
11:29AM 45.1781 -122.3861 346° North 279 321 26,000  Level Seattle Center
11:31AM 45.3256 -122.4386 346° North 275 316 26,000  Level Seattle Center
11:32AM 45.3992 -122.4656 346° North 274 315 26,000  Level Seattle Center
11:34AM 45.4719 -122.4892 346° North  Level FlightAware Approximate
11:34AM 45.5088 -122.4575 North  Level Estimated
11:36AM 45.7044 -122.5761 North 271 312 26,000  Level Seattle Center
11:38AM 45.8536 -122.6167 349° North 273 314 26,000  Level Seattle Center
11:40AM 45.9558 -122.6390 344° North  Level FlightAware Approximate
11:40AM 46.0019 -122.6561 344° North 273 314 26,000  Level Seattle Center
11:41AM 46.0039 -122.4204 North  Level Estimated
11:41AM 46.0756 -122.6750 350° North 272 313 26,000  Level Seattle Center
11:42AM 46.1486 -122.6933 350° North 269 310 24,900 -1,140 Descending Seattle Center
11:43AM 46.2194 -122.7117 350° North 267 307 23,800 -1,260 Descending Seattle Center
11:44AM 46.2936 -122.7319 349° North 271 312 22,400 -1,800 Descending Seattle Center
11:46AM 46.3905 -122.7435 350° North  Level FlightAware Approximate
11:47AM 46.5236 -122.7872 347° North 268 308 16,600  Level Seattle Center
11:49AM 46.6134 -122.7447 349° North  Level Estimated
11:49AM 46.6708 -122.8244 349° North 268 308 12,800  Level Seattle Center
11:50AM 46.7519 -122.8442 351° North 265 305 11,000 -900 Descending Seattle Center
11:52AM 46.8420 -122.8618 352° North  Level FlightAware Approximate
11:52AM 46.8894 -122.8803 352° North 250 288 10,100  Level Seattle Center
11:53AM 46.8785 -122.8706 347° North  Level FlightAware Approximate
11:53AM 46.9572 -122.8881 356° North 247 284 10,100  Level Seattle Center
11:54AM 47.0167 -122.8458 26° Northeast 237 273 10,100 -60 Level Seattle Center
11:56AM 47.0811 -122.7642 41° Northeast 235 270 10,000 -420 Descending Seattle Center
11:56AM 47.1183 -122.7150 42° Northeast 234 269 9,300 -1,020 Descending Seattle Center
11:57AM 47.1300 -122.7022 37° Northeast 233 268 9,000 -600 Descending Seattle Center
11:58AM 47.2172 -122.5861 42° Northeast 238 274 8,100 -480 Descending Seattle Center
11:59AM 47.2231 -122.5606 71° East 228 262 8,100  Level Seattle Center
12:00PM 47.2625 -122.4297 66° East 217 250 8,100 -300 Level Seattle Center
12:01PM 47.2858 -122.3506 66° East 215 247 7,400 -1,260 Descending Seattle Center
12:02PM 47.3128 -122.2589 67° East 210 242 5,600 -1,380 Descending Seattle Center
12:03PM 47.3431 -122.2031 51° Northeast 199 229 4,600 -1,140 Descending Seattle Center
12:04PM 47.3889 -122.1772 21° North 187 215 3,300 -1,080 Descending Seattle Center
12:07PM 47.5045 -122.2883 327° Northwest  Level FlightAware Approximate
12:07PM 47.4614 -122.2467 327° Northwest 135 155 1,400  Level Seattle Center
12:08PM 47.4922 -122.2722 331° Northwest 119 137 700 -720 Descending Seattle Center